臺中航空站 - ATIS

METAR RCMQ 301500Z 06003KT 9999 FEW010 10/07 Q1019 RMK A3011=

站台狀態:Online
最後更新:2023-01-31 00:00:02